createdAt,value
2019-02-26T00:00:42.245Z,4.12
2019-02-26T00:03:06.613Z,5.52
2019-02-26T00:05:34.574Z,5.51
2019-02-26T00:08:02.672Z,5.50
2019-02-26T00:10:31.596Z,4.92
2019-02-26T00:12:58.516Z,5.50
2019-02-26T00:15:26.539Z,5.48
2019-02-26T00:17:54.973Z,5.48
2019-02-26T00:20:22.950Z,5.47
2019-02-26T00:22:52.983Z,5.47
2019-02-26T00:25:20.466Z,5.46
2019-02-26T00:27:49.335Z,5.43
2019-02-26T00:30:16.643Z,5.43
2019-02-26T00:32:44.147Z,5.27
2019-02-26T00:35:12.169Z,5.38
2019-02-26T00:37:40.396Z,5.36
2019-02-26T00:40:10.053Z,5.34
2019-02-26T00:42:37.111Z,5.33
2019-02-26T00:45:07.848Z,5.29
2019-02-26T00:47:35.953Z,5.29
2019-02-26T00:50:02.481Z,5.26
2019-02-26T00:52:32.576Z,5.23
2019-02-26T00:54:59.937Z,5.21
2019-02-26T00:57:30.962Z,5.20
2019-02-26T00:59:55.849Z,5.19
2019-02-26T01:02:23.988Z,5.18
2019-02-26T01:04:52.129Z,5.16
2019-02-26T01:07:21.355Z,5.18
2019-02-26T01:09:50.193Z,5.16
2019-02-26T01:12:18.306Z,5.12
2019-02-26T01:14:48.075Z,5.09
2019-02-26T01:17:16.988Z,5.04
2019-02-26T01:19:43.299Z,5.05
2019-02-26T01:22:10.994Z,5.04
2019-02-26T01:24:39.085Z,5.03
2019-02-26T01:27:07.314Z,4.67
2019-02-26T01:29:35.744Z,5.02
2019-02-26T01:32:03.660Z,5.00
2019-02-26T01:34:31.710Z,5.03
2019-02-26T01:37:00.914Z,5.04
2019-02-26T01:39:28.046Z,5.04
2019-02-26T01:41:58.717Z,5.04
2019-02-26T01:44:28.119Z,5.01
2019-02-26T01:46:53.775Z,5.09
2019-02-26T01:49:23.642Z,5.10
2019-02-26T01:51:51.792Z,5.12
2019-02-26T01:54:18.878Z,5.13
2019-02-26T01:56:47.403Z,5.14
2019-02-26T01:59:18.263Z,5.14
2019-02-26T02:04:24.346Z,5.21
2019-02-26T02:06:54.445Z,5.23
2019-02-26T02:09:22.749Z,5.23
2019-02-26T02:11:49.442Z,5.21
2019-02-26T02:14:17.490Z,5.19
2019-02-26T02:16:46.156Z,5.16
2019-02-26T02:19:18.083Z,5.15
2019-02-26T02:21:42.686Z,5.13
2019-02-26T02:24:12.810Z,5.10
2019-02-26T02:26:41.093Z,5.08
2019-02-26T02:29:07.570Z,5.07
2019-02-26T02:31:37.722Z,5.05
2019-02-26T02:34:03.969Z,5.04
2019-02-26T02:36:31.926Z,5.03
2019-02-26T02:38:59.986Z,5.02
2019-02-26T02:41:28.456Z,5.01
2019-02-26T02:43:56.461Z,5.00
2019-02-26T02:46:24.683Z,4.62
2019-02-26T02:48:53.192Z,4.98
2019-02-26T02:51:21.607Z,4.98
2019-02-26T02:53:51.076Z,4.98
2019-02-26T02:56:18.076Z,4.99
2019-02-26T02:58:46.962Z,4.98
2019-02-26T03:01:16.491Z,4.96
2019-02-26T03:03:43.031Z,4.92
2019-02-26T03:06:12.360Z,4.88
2019-02-26T03:08:39.885Z,4.70
2019-02-26T03:11:07.665Z,4.79
2019-02-26T03:13:35.886Z,4.61
2019-02-26T03:16:03.918Z,4.72
2019-02-26T03:18:32.289Z,4.68
2019-02-26T03:21:02.452Z,4.65
2019-02-26T03:23:28.355Z,4.61
2019-02-26T03:25:56.553Z,4.58
2019-02-26T03:28:25.003Z,4.55
2019-02-26T03:30:53.172Z,4.53
2019-02-26T03:33:21.411Z,4.50
2019-02-26T03:35:50.036Z,4.47
2019-02-26T03:38:20.638Z,4.44
2019-02-26T03:40:48.965Z,4.41
2019-02-26T03:43:16.311Z,4.39
2019-02-26T03:45:47.313Z,4.37
2019-02-26T03:48:11.492Z,4.33
2019-02-26T03:50:44.083Z,4.28
2019-02-26T03:53:09.930Z,4.27
2019-02-26T03:55:38.812Z,4.12
2019-02-26T03:58:04.090Z,4.20
2019-02-26T04:00:34.632Z,4.19
2019-02-26T04:03:00.023Z,4.15
2019-02-26T04:05:28.597Z,4.01
2019-02-26T04:07:58.912Z,4.11
2019-02-26T04:10:24.207Z,4.11
2019-02-26T04:12:55.356Z,3.96
2019-02-26T04:15:24.322Z,4.07
2019-02-26T04:17:49.181Z,4.06
2019-02-26T04:20:17.902Z,4.04
2019-02-26T04:22:48.960Z,4.02
2019-02-26T04:25:18.130Z,4.00
2019-02-26T04:28:10.806Z,3.67
2019-02-26T04:32:57.569Z,3.96
2019-02-26T04:35:36.155Z,2.79
2019-02-26T04:38:29.079Z,3.83
2019-02-26T04:41:10.236Z,3.83
2019-02-26T04:43:58.509Z,3.80
2019-02-26T04:46:36.953Z,3.81
2019-02-26T04:49:03.095Z,3.54
2019-02-26T04:51:31.496Z,3.80
2019-02-26T04:54:02.031Z,3.69
2019-02-26T04:56:31.258Z,3.78
2019-02-26T04:58:56.533Z,3.78
2019-02-26T05:01:24.687Z,3.75
2019-02-26T05:03:57.017Z,3.61
2019-02-26T05:06:25.647Z,3.69
2019-02-26T05:08:55.921Z,3.68
2019-02-26T05:11:31.800Z,3.64
2019-02-26T05:13:50.543Z,3.64
2019-02-26T05:16:19.275Z,3.63
2019-02-26T05:18:49.599Z,3.60
2019-02-26T05:21:16.564Z,3.54
2019-02-26T05:23:46.610Z,3.50
2019-02-26T05:26:18.086Z,3.48
2019-02-26T05:28:49.712Z,3.45
2019-02-26T05:31:17.935Z,3.46
2019-02-26T05:33:49.570Z,3.21
2019-02-26T05:36:17.227Z,3.25
2019-02-26T05:38:43.607Z,3.47
2019-02-26T05:41:11.500Z,3.01
2019-02-26T05:43:39.671Z,3.50
2019-02-26T05:46:07.874Z,3.52
2019-02-26T05:48:37.167Z,2.69
2019-02-26T05:51:05.743Z,3.09
2019-02-26T05:53:33.150Z,3.58
2019-02-26T05:56:01.363Z,3.58
2019-02-26T05:58:29.150Z,3.56
2019-02-26T06:00:57.966Z,3.43
2019-02-26T06:03:25.831Z,3.53
2019-02-26T06:05:55.500Z,3.39
2019-02-26T06:08:25.650Z,3.49
2019-02-26T06:10:49.760Z,3.36
2019-02-26T06:13:18.100Z,3.44
2019-02-26T06:15:46.233Z,3.41
2019-02-26T06:18:14.168Z,3.38
2019-02-26T06:20:42.125Z,3.15
2019-02-26T06:23:10.173Z,2.89
2019-02-26T06:25:38.426Z,3.39
2019-02-26T06:28:07.721Z,3.38
2019-02-26T06:30:34.849Z,3.15
2019-02-26T06:33:04.360Z,3.38
2019-02-26T06:35:31.555Z,3.39
2019-02-26T06:38:00.037Z,3.41
2019-02-26T06:40:27.578Z,3.44
2019-02-26T06:42:55.564Z,3.45
2019-02-26T06:45:23.802Z,3.46
2019-02-26T06:47:53.988Z,3.48
2019-02-26T06:50:19.886Z,3.50
2019-02-26T06:52:50.546Z,3.37
2019-02-26T06:55:17.002Z,3.54
2019-02-26T06:57:47.216Z,3.56
2019-02-26T07:00:16.218Z,3.60
2019-02-26T07:02:45.514Z,3.64
2019-02-26T07:05:12.260Z,3.69
2019-02-26T07:07:40.634Z,3.74
2019-02-26T07:10:13.813Z,3.79
2019-02-26T07:12:40.536Z,3.85
2019-02-26T07:15:11.698Z,3.89
2019-02-26T07:17:39.045Z,3.95
2019-02-26T07:20:06.956Z,4.00
2019-02-26T07:22:35.514Z,4.07
2019-02-26T07:25:03.795Z,3.67
2019-02-26T07:27:33.700Z,4.29
2019-02-26T07:30:00.343Z,4.04
2019-02-26T07:32:28.139Z,4.53
2019-02-26T07:34:58.078Z,4.64
2019-02-26T07:37:29.219Z,4.75
2019-02-26T07:39:56.623Z,4.88
2019-02-26T07:42:24.637Z,4.98
2019-02-26T07:44:53.291Z,5.11
2019-02-26T07:47:22.097Z,3.96
2019-02-26T07:49:49.229Z,5.34
2019-02-26T07:52:17.468Z,5.46
2019-02-26T07:54:47.082Z,5.60
2019-02-26T07:57:13.326Z,5.73
2019-02-26T07:59:42.549Z,5.85
2019-02-26T08:02:11.357Z,5.93
2019-02-26T08:04:39.477Z,5.98
2019-02-26T08:07:06.882Z,5.68
2019-02-26T08:09:35.125Z,6.10
2019-02-26T08:12:04.348Z,6.19
2019-02-26T08:17:06.107Z,6.43
2019-02-26T08:19:31.948Z,6.46
2019-02-26T08:21:59.989Z,6.72
2019-02-26T08:24:28.030Z,6.89
2019-02-26T08:26:56.235Z,7.06
2019-02-26T08:29:26.359Z,7.11
2019-02-26T08:31:52.680Z,7.38
2019-02-26T08:34:20.705Z,7.50
2019-02-26T08:36:48.807Z,7.65
2019-02-26T08:39:16.587Z,7.68
2019-02-26T08:42:00.165Z,7.76
2019-02-26T08:44:28.218Z,7.90
2019-02-26T08:46:55.906Z,8.19
2019-02-26T08:49:24.307Z,8.38
2019-02-26T08:51:52.426Z,8.54
2019-02-26T08:54:21.266Z,8.68
2019-02-26T08:56:48.124Z,8.80
2019-02-26T08:59:17.742Z,8.94
2019-02-26T09:01:43.840Z,9.04
2019-02-26T09:04:12.284Z,9.07
2019-02-26T09:06:39.743Z,9.36
2019-02-26T09:09:07.891Z,9.58
2019-02-26T09:11:43.585Z,9.78
2019-02-26T09:14:13.980Z,9.98
2019-02-26T09:16:40.250Z,10.10
2019-02-26T09:19:08.998Z,10.12
2019-02-26T09:21:39.518Z,10.17
2019-02-26T09:24:07.632Z,10.14
2019-02-26T09:26:32.824Z,10.24
2019-02-26T09:29:01.005Z,10.50
2019-02-26T09:31:29.179Z,10.66
2019-02-26T09:33:57.206Z,10.86
2019-02-26T09:36:26.204Z,10.94
2019-02-26T09:38:53.198Z,11.25
2019-02-26T09:41:21.481Z,11.44
2019-02-26T09:43:49.161Z,11.50
2019-02-26T09:46:19.074Z,11.47
2019-02-26T09:48:46.337Z,11.71
2019-02-26T09:51:14.788Z,11.91
2019-02-26T09:53:42.443Z,12.03
2019-02-26T09:56:10.379Z,12.16
2019-02-26T09:58:40.346Z,12.31
2019-02-26T10:01:08.701Z,12.38
2019-02-26T10:03:38.604Z,12.64
2019-02-26T10:06:03.415Z,12.43
2019-02-26T10:08:31.956Z,12.86
2019-02-26T10:11:02.150Z,13.05
2019-02-26T10:13:27.953Z,13.16
2019-02-26T10:15:58.584Z,13.37
2019-02-26T10:18:25.652Z,13.76
2019-02-26T10:20:54.627Z,13.79
2019-02-26T10:23:21.777Z,14.07
2019-02-26T10:25:53.199Z,14.21
2019-02-26T10:28:17.120Z,14.31
2019-02-26T10:30:45.043Z,14.52
2019-02-26T10:33:12.865Z,14.67
2019-02-26T10:35:44.403Z,14.73
2019-02-26T10:40:53.510Z,15.02
2019-02-26T10:43:11.067Z,15.18
2019-02-26T10:45:42.407Z,15.30
2019-02-26T10:48:07.555Z,15.45
2019-02-26T10:50:37.268Z,15.50
2019-02-26T10:53:09.718Z,15.52
2019-02-26T10:55:38.434Z,15.22
2019-02-26T10:58:04.677Z,15.78
2019-02-26T11:00:32.215Z,15.96
2019-02-26T11:02:56.810Z,16.15
2019-02-26T11:05:26.508Z,16.22
2019-02-26T11:07:55.772Z,16.57
2019-02-26T11:10:23.216Z,16.50
2019-02-26T11:12:53.533Z,16.44
2019-02-26T11:15:21.594Z,16.53
2019-02-26T11:17:50.461Z,16.68
2019-02-26T11:20:16.686Z,16.63
2019-02-26T11:22:47.005Z,16.69
2019-02-26T11:25:13.999Z,16.84
2019-02-26T11:27:43.486Z,17.03
2019-02-26T11:30:11.705Z,17.01
2019-02-26T11:32:40.411Z,16.84
2019-02-26T11:35:08.826Z,17.35
2019-02-26T11:37:36.601Z,17.33
2019-02-26T11:40:06.429Z,17.29
2019-02-26T11:42:34.713Z,17.41
2019-02-26T11:45:02.726Z,17.45
2019-02-26T11:47:32.216Z,17.50
2019-02-26T11:49:59.688Z,17.57
2019-02-26T11:52:26.965Z,17.57
2019-02-26T11:54:56.297Z,17.46
2019-02-26T11:57:23.469Z,17.46
2019-02-26T11:59:51.694Z,17.56
2019-02-26T12:02:26.699Z,17.60
2019-02-26T12:04:47.631Z,17.60
2019-02-26T12:07:15.584Z,17.67
2019-02-26T12:09:43.496Z,17.74
2019-02-26T12:12:11.708Z,17.88
2019-02-26T12:14:43.216Z,17.99
2019-02-26T12:17:08.599Z,18.07
2019-02-26T12:19:37.175Z,17.90
2019-02-26T12:22:06.002Z,18.28
2019-02-26T12:24:33.631Z,18.49
2019-02-26T12:27:01.704Z,18.62
2019-02-26T12:29:29.729Z,18.61
2019-02-26T12:31:58.907Z,18.60
2019-02-26T12:34:26.161Z,18.60
2019-02-26T12:36:57.211Z,18.62
2019-02-26T12:39:24.820Z,18.42
2019-02-26T12:41:49.974Z,18.25
2019-02-26T12:44:17.855Z,18.18
2019-02-26T12:46:47.607Z,18.13
2019-02-26T12:49:15.757Z,18.05
2019-02-26T12:51:41.687Z,18.07
2019-02-26T12:54:12.640Z,18.09
2019-02-26T12:56:37.763Z,18.14
2019-02-26T12:59:07.165Z,18.24
2019-02-26T13:01:36.031Z,18.31
2019-02-26T13:04:02.852Z,18.26
2019-02-26T13:06:30.702Z,17.99
2019-02-26T13:08:58.445Z,17.96
2019-02-26T13:11:26.513Z,17.96
2019-02-26T13:13:55.020Z,18.05
2019-02-26T13:16:23.176Z,18.15
2019-02-26T13:18:52.622Z,18.20
2019-02-26T13:21:19.221Z,18.02
2019-02-26T13:23:47.310Z,18.20
2019-02-26T13:26:19.677Z,18.21
2019-02-26T13:28:46.739Z,18.06
2019-02-26T13:31:13.387Z,18.12
2019-02-26T13:33:42.125Z,17.99
2019-02-26T13:36:08.455Z,17.87
2019-02-26T13:38:44.849Z,17.75
2019-02-26T13:43:33.774Z,17.63
2019-02-26T13:46:03.010Z,17.64
2019-02-26T13:48:30.950Z,17.63
2019-02-26T13:50:59.082Z,17.22
2019-02-26T13:53:27.527Z,17.53
2019-02-26T13:55:55.374Z,17.48
2019-02-26T13:58:23.199Z,17.41
2019-02-26T14:00:51.028Z,17.34
2019-02-26T14:03:18.851Z,17.21
2019-02-26T14:05:46.834Z,17.29
2019-02-26T14:08:14.886Z,17.24
2019-02-26T14:10:43.022Z,17.21
2019-02-26T14:13:10.832Z,17.20
2019-02-26T14:15:39.236Z,17.24
2019-02-26T14:18:08.021Z,17.24
2019-02-26T14:20:36.111Z,17.23
2019-02-26T14:23:04.585Z,17.21
2019-02-26T14:25:34.207Z,17.12
2019-02-26T14:28:02.287Z,17.22
2019-02-26T14:30:30.206Z,17.12
2019-02-26T14:32:58.090Z,17.19
2019-02-26T14:35:25.877Z,17.19
2019-02-26T14:37:54.219Z,17.18
2019-02-26T14:40:22.274Z,17.18
2019-02-26T14:42:50.093Z,17.17
2019-02-26T14:45:18.263Z,17.17
2019-02-26T14:47:46.328Z,17.13
2019-02-26T14:50:15.671Z,17.15
2019-02-26T14:52:43.938Z,17.14
2019-02-26T14:55:12.250Z,17.14
2019-02-26T14:57:40.185Z,17.09
2019-02-26T15:00:11.957Z,16.97
2019-02-26T15:02:39.742Z,16.95
2019-02-26T15:05:07.760Z,17.02
2019-02-26T15:07:35.934Z,16.85
2019-02-26T15:10:05.754Z,17.03
2019-02-26T15:12:33.558Z,16.91
2019-02-26T15:15:02.135Z,16.97
2019-02-26T15:17:30.901Z,16.95
2019-02-26T15:19:58.263Z,16.94
2019-02-26T15:22:26.785Z,16.54
2019-02-26T15:24:55.347Z,16.18
2019-02-26T15:27:23.102Z,16.74
2019-02-26T15:29:51.796Z,16.58
2019-02-26T15:32:20.018Z,16.62
2019-02-26T15:34:50.286Z,16.57
2019-02-26T15:37:18.836Z,16.16
2019-02-26T15:39:53.559Z,16.51
2019-02-26T15:42:22.198Z,16.44
2019-02-26T15:44:51.649Z,16.09
2019-02-26T15:47:19.566Z,16.33
2019-02-26T15:49:48.082Z,16.20
2019-02-26T15:52:16.963Z,16.24
2019-02-26T15:54:45.615Z,16.20
2019-02-26T15:57:14.019Z,16.16
2019-02-26T15:59:43.548Z,16.13
2019-02-26T16:02:12.518Z,16.00
2019-02-26T16:04:40.652Z,16.04
2019-02-26T16:07:09.841Z,15.97
2019-02-26T16:09:37.953Z,15.91
2019-02-26T16:12:05.914Z,15.83
2019-02-26T16:14:34.295Z,15.79
2019-02-26T16:17:02.522Z,15.15
2019-02-26T16:19:30.428Z,15.64
2019-02-26T16:21:58.989Z,15.37
2019-02-26T16:24:27.046Z,15.51
2019-02-26T16:26:56.246Z,15.44
2019-02-26T16:29:25.022Z,15.37
2019-02-26T16:31:52.896Z,15.27
2019-02-26T16:34:21.180Z,15.16
2019-02-26T16:36:48.952Z,15.06
2019-02-26T16:39:18.983Z,14.98
2019-02-26T16:41:47.559Z,14.85
2019-02-26T16:44:18.129Z,14.76
2019-02-26T16:46:46.853Z,14.25
2019-02-26T16:49:17.239Z,14.58
2019-02-26T16:51:46.347Z,14.48
2019-02-26T16:54:19.468Z,14.40
2019-02-26T16:56:50.125Z,14.34
2019-02-26T16:59:18.045Z,14.17
2019-02-26T17:01:46.287Z,14.20
2019-02-26T17:04:16.022Z,14.10
2019-02-26T17:06:44.524Z,13.99
2019-02-26T17:09:14.323Z,13.89
2019-02-26T17:11:44.573Z,13.40
2019-02-26T17:14:17.347Z,13.71
2019-02-26T17:16:45.910Z,13.13
2019-02-26T17:19:15.473Z,13.54
2019-02-26T17:21:42.663Z,13.25
2019-02-26T17:24:11.448Z,13.24
2019-02-26T17:26:39.739Z,13.27
2019-02-26T17:29:07.738Z,13.22
2019-02-26T17:31:37.660Z,12.76
2019-02-26T17:34:12.567Z,13.14
2019-02-26T17:36:41.803Z,13.14
2019-02-26T17:39:11.130Z,13.14
2019-02-26T17:41:39.043Z,13.10
2019-02-26T17:44:08.085Z,13.02
2019-02-26T17:46:36.275Z,12.73
2019-02-26T17:49:07.990Z,12.86
2019-02-26T17:51:37.765Z,12.45
2019-02-26T17:54:07.258Z,12.55
2019-02-26T17:56:36.326Z,12.51
2019-02-26T17:59:05.399Z,12.39
2019-02-26T18:01:33.470Z,12.27
2019-02-26T18:04:01.563Z,12.16
2019-02-26T18:06:29.795Z,11.85
2019-02-26T18:08:58.159Z,11.96
2019-02-26T18:11:26.271Z,11.86
2019-02-26T18:13:54.278Z,11.75
2019-02-26T18:16:22.238Z,11.64
2019-02-26T18:18:50.368Z,11.39
2019-02-26T18:21:18.482Z,11.45
2019-02-26T18:23:46.747Z,11.37
2019-02-26T18:26:17.381Z,11.30
2019-02-26T18:28:42.901Z,11.22
2019-02-26T18:31:11.062Z,11.15
2019-02-26T18:33:39.349Z,11.07
2019-02-26T18:36:07.413Z,10.98
2019-02-26T18:38:35.746Z,10.90
2019-02-26T18:41:03.801Z,10.83
2019-02-26T18:43:31.801Z,10.77
2019-02-26T18:46:00.864Z,10.72
2019-02-26T18:48:34.959Z,10.66
2019-02-26T18:51:03.762Z,10.61
2019-02-26T18:53:32.242Z,10.55
2019-02-26T18:56:01.799Z,10.49
2019-02-26T18:58:28.951Z,10.43
2019-02-26T19:00:58.669Z,10.34
2019-02-26T19:03:25.812Z,10.23
2019-02-26T19:05:54.667Z,10.16
2019-02-26T19:08:21.879Z,10.07
2019-02-26T19:10:50.880Z,10.01
2019-02-26T19:13:18.322Z,9.92
2019-02-26T19:15:48.441Z,9.85
2019-02-26T19:18:15.775Z,8.77
2019-02-26T19:20:44.408Z,9.73
2019-02-26T19:23:12.825Z,9.67
2019-02-26T19:25:41.635Z,9.62
2019-02-26T19:28:09.902Z,9.54
2019-02-26T19:30:37.575Z,9.46
2019-02-26T19:33:06.387Z,9.42
2019-02-26T19:35:38.180Z,9.37
2019-02-26T19:38:03.299Z,9.34
2019-02-26T19:40:34.173Z,9.33
2019-02-26T19:43:02.291Z,9.31
2019-02-26T19:45:32.830Z,9.28
2019-02-26T19:47:58.931Z,9.22
2019-02-26T19:50:27.166Z,9.15
2019-02-26T19:52:57.277Z,9.10
2019-02-26T19:55:26.836Z,9.05
2019-02-26T19:57:55.016Z,8.99
2019-02-26T20:00:23.947Z,8.94
2019-02-26T20:02:51.824Z,8.89
2019-02-26T20:05:21.094Z,8.55
2019-02-26T20:07:50.215Z,8.56
2019-02-26T20:10:18.842Z,8.73
2019-02-26T20:12:46.705Z,8.71
2019-02-26T20:15:14.983Z,8.65
2019-02-26T20:17:43.360Z,8.60
2019-02-26T20:20:11.970Z,8.57
2019-02-26T20:22:39.757Z,8.53
2019-02-26T20:25:09.855Z,8.47
2019-02-26T20:27:38.390Z,8.41
2019-02-26T20:30:09.622Z,8.34
2019-02-26T20:32:36.092Z,7.92
2019-02-26T20:35:04.946Z,8.23
2019-02-26T20:37:32.847Z,8.18
2019-02-26T20:40:00.745Z,8.13
2019-02-26T20:42:29.547Z,8.07
2019-02-26T20:44:59.125Z,8.04
2019-02-26T20:47:25.491Z,8.01
2019-02-26T20:49:54.066Z,7.96
2019-02-26T20:52:21.923Z,7.89
2019-02-26T20:54:49.794Z,7.84
2019-02-26T20:57:18.259Z,7.78
2019-02-26T20:59:46.424Z,7.71
2019-02-26T21:02:14.203Z,7.69
2019-02-26T21:04:42.681Z,7.62
2019-02-26T21:07:10.822Z,7.58
2019-02-26T21:09:41.044Z,7.39
2019-02-26T21:12:07.061Z,7.46
2019-02-26T21:14:35.207Z,7.41
2019-02-26T21:17:03.752Z,7.37
2019-02-26T21:19:35.570Z,7.15
2019-02-26T21:22:02.111Z,7.23
2019-02-26T21:24:31.883Z,7.20
2019-02-26T21:26:58.022Z,7.18
2019-02-26T21:29:26.042Z,7.15
2019-02-26T21:31:54.449Z,7.07
2019-02-26T21:34:23.163Z,6.94
2019-02-26T21:36:51.018Z,6.96
2019-02-26T21:39:19.049Z,6.94
2019-02-26T21:41:47.110Z,6.90
2019-02-26T21:44:16.435Z,6.89
2019-02-26T21:46:44.627Z,6.87
2019-02-26T21:49:12.887Z,6.85
2019-02-26T21:51:40.681Z,6.81
2019-02-26T21:54:08.626Z,6.74
2019-02-26T21:56:36.927Z,6.71
2019-02-26T21:59:04.966Z,6.63
2019-02-26T22:01:32.823Z,6.58
2019-02-26T22:04:01.833Z,6.53
2019-02-26T22:06:30.005Z,6.51
2019-02-26T22:08:57.918Z,6.46
2019-02-26T22:11:26.023Z,6.42
2019-02-26T22:13:55.557Z,6.38
2019-02-26T22:16:23.958Z,6.34
2019-02-26T22:18:52.194Z,6.28
2019-02-26T22:21:20.175Z,6.22
2019-02-26T22:23:48.108Z,6.16
2019-02-26T22:26:16.443Z,6.09
2019-02-26T22:28:44.630Z,6.06
2019-02-26T22:31:12.654Z,6.03
2019-02-26T22:33:43.427Z,5.75
2019-02-26T22:36:09.900Z,5.99
2019-02-26T22:38:38.951Z,5.95
2019-02-26T22:41:07.394Z,5.92
2019-02-26T22:43:35.295Z,5.91
2019-02-26T22:46:03.193Z,5.90
2019-02-26T22:48:31.638Z,5.85
2019-02-26T22:51:00.324Z,5.83
2019-02-26T22:53:28.689Z,5.80
2019-02-26T22:55:57.481Z,5.75
2019-02-26T22:58:25.645Z,5.73
2019-02-26T23:01:02.687Z,5.69
2019-02-26T23:30:59.892Z,5.23
2019-02-26T23:33:28.875Z,5.20
2019-02-26T23:35:58.675Z,5.17
2019-02-26T23:38:28.802Z,5.11
2019-02-26T23:41:00.312Z,4.81
2019-02-26T23:43:29.590Z,5.03
2019-02-26T23:45:58.947Z,5.03
2019-02-26T23:48:28.780Z,4.99
2019-02-26T23:50:58.678Z,4.95
2019-02-26T23:53:29.026Z,4.97
2019-02-26T23:55:58.786Z,4.96
2019-02-26T23:58:31.192Z,4.94
